sensor_id;sensor_type;location;lat;lon;timestamp;temperature;humidity
6018;DHT22;3037;51.068;13.780;2023-09-07T00:00:42;15.80;99.90
6018;DHT22;3037;51.068;13.780;2023-09-07T00:03:07;15.80;99.90
6018;DHT22;3037;51.068;13.780;2023-09-07T00:05:33;15.80;99.90
6018;DHT22;3037;51.068;13.780;2023-09-07T00:07:58;15.70;99.90
6018;DHT22;3037;51.068;13.780;2023-09-07T00:10:24;15.70;99.90
6018;DHT22;3037;51.068;13.780;2023-09-07T00:12:51;15.60;99.90
6018;DHT22;3037;51.068;13.780;2023-09-07T00:15:16;15.50;99.90
6018;DHT22;3037;51.068;13.780;2023-09-07T00:17:44;15.50;99.90
6018;DHT22;3037;51.068;13.780;2023-09-07T00:20:10;15.50;99.90
6018;DHT22;3037;51.068;13.780;2023-09-07T00:22:36;15.50;99.90
6018;DHT22;3037;51.068;13.780;2023-09-07T00:25:03;15.30;99.90
6018;DHT22;3037;51.068;13.780;2023-09-07T00:27:29;15.30;99.90
6018;DHT22;3037;51.068;13.780;2023-09-07T00:29:55;15.30;99.90
6018;DHT22;3037;51.068;13.780;2023-09-07T00:32:20;15.30;99.90
6018;DHT22;3037;51.068;13.780;2023-09-07T00:34:46;15.30;99.90
6018;DHT22;3037;51.068;13.780;2023-09-07T00:37:12;15.40;99.90
6018;DHT22;3037;51.068;13.780;2023-09-07T00:39:37;15.30;99.90
6018;DHT22;3037;51.068;13.780;2023-09-07T00:42:03;15.40;99.90
6018;DHT22;3037;51.068;13.780;2023-09-07T00:44:29;15.30;99.90
6018;DHT22;3037;51.068;13.780;2023-09-07T00:46:56;15.30;99.90
6018;DHT22;3037;51.068;13.780;2023-09-07T00:49:23;15.40;99.90
6018;DHT22;3037;51.068;13.780;2023-09-07T00:51:49;15.30;99.90
6018;DHT22;3037;51.068;13.780;2023-09-07T00:54:14;15.20;99.90
6018;DHT22;3037;51.068;13.780;2023-09-07T00:56:40;15.30;99.90
6018;DHT22;3037;51.068;13.780;2023-09-07T00:59:07;15.30;99.90
6018;DHT22;3037;51.068;13.780;2023-09-07T01:01:33;15.20;99.90
6018;DHT22;3037;51.068;13.780;2023-09-07T01:04:00;15.20;99.90
6018;DHT22;3037;51.068;13.780;2023-09-07T01:06:26;15.10;99.90
6018;DHT22;3037;51.068;13.780;2023-09-07T01:08:55;15.00;99.90
6018;DHT22;3037;51.068;13.780;2023-09-07T01:11:22;15.00;99.90
6018;DHT22;3037;51.068;13.780;2023-09-07T01:13:48;15.00;99.90
6018;DHT22;3037;51.068;13.780;2023-09-07T01:16:14;14.90;99.90
6018;DHT22;3037;51.068;13.780;2023-09-07T01:18:40;14.90;99.90
6018;DHT22;3037;51.068;13.780;2023-09-07T01:21:07;14.80;99.90
6018;DHT22;3037;51.068;13.780;2023-09-07T01:23:35;14.80;99.90
6018;DHT22;3037;51.068;13.780;2023-09-07T01:26:02;14.80;99.90
6018;DHT22;3037;51.068;13.780;2023-09-07T01:28:28;14.80;99.90
6018;DHT22;3037;51.068;13.780;2023-09-07T01:30:54;14.80;99.90
6018;DHT22;3037;51.068;13.780;2023-09-07T01:33:19;14.70;99.90
6018;DHT22;3037;51.068;13.780;2023-09-07T01:35:45;14.70;99.90
6018;DHT22;3037;51.068;13.780;2023-09-07T01:38:11;14.80;99.90
6018;DHT22;3037;51.068;13.780;2023-09-07T01:40:37;14.80;99.90
6018;DHT22;3037;51.068;13.780;2023-09-07T01:43:02;14.90;99.90
6018;DHT22;3037;51.068;13.780;2023-09-07T01:45:28;14.80;99.90
6018;DHT22;3037;51.068;13.780;2023-09-07T01:47:53;14.80;99.90
6018;DHT22;3037;51.068;13.780;2023-09-07T01:50:19;14.80;99.90
6018;DHT22;3037;51.068;13.780;2023-09-07T01:52:48;14.80;99.90
6018;DHT22;3037;51.068;13.780;2023-09-07T01:55:16;14.80;99.90
6018;DHT22;3037;51.068;13.780;2023-09-07T01:57:42;14.70;99.90
6018;DHT22;3037;51.068;13.780;2023-09-07T02:00:08;14.70;99.90
6018;DHT22;3037;51.068;13.780;2023-09-07T02:02:33;14.80;99.90
6018;DHT22;3037;51.068;13.780;2023-09-07T02:04:59;14.70;99.90
6018;DHT22;3037;51.068;13.780;2023-09-07T02:07:24;14.70;99.90
6018;DHT22;3037;51.068;13.780;2023-09-07T02:09:50;14.70;99.90
6018;DHT22;3037;51.068;13.780;2023-09-07T02:12:16;14.60;99.90
6018;DHT22;3037;51.068;13.780;2023-09-07T02:14:42;14.60;99.90
6018;DHT22;3037;51.068;13.780;2023-09-07T02:17:07;14.50;99.90
6018;DHT22;3037;51.068;13.780;2023-09-07T02:19:33;14.50;99.90
6018;DHT22;3037;51.068;13.780;2023-09-07T02:21:58;14.50;99.90
6018;DHT22;3037;51.068;13.780;2023-09-07T02:24:24;14.50;99.90
6018;DHT22;3037;51.068;13.780;2023-09-07T02:26:49;14.50;99.90
6018;DHT22;3037;51.068;13.780;2023-09-07T02:29:15;14.50;99.90
6018;DHT22;3037;51.068;13.780;2023-09-07T02:31:41;14.40;99.90
6018;DHT22;3037;51.068;13.780;2023-09-07T02:34:07;14.40;99.90
6018;DHT22;3037;51.068;13.780;2023-09-07T02:36:33;14.40;99.90
6018;DHT22;3037;51.068;13.780;2023-09-07T02:39:00;14.40;99.90
6018;DHT22;3037;51.068;13.780;2023-09-07T02:41:25;14.30;99.90
6018;DHT22;3037;51.068;13.780;2023-09-07T02:43:51;14.20;99.90
6018;DHT22;3037;51.068;13.780;2023-09-07T02:46:16;14.20;99.90
6018;DHT22;3037;51.068;13.780;2023-09-07T02:48:42;14.20;99.90
6018;DHT22;3037;51.068;13.780;2023-09-07T02:51:07;14.10;99.90
6018;DHT22;3037;51.068;13.780;2023-09-07T02:53:33;14.10;99.90
6018;DHT22;3037;51.068;13.780;2023-09-07T02:55:59;14.10;99.90
6018;DHT22;3037;51.068;13.780;2023-09-07T02:58:27;14.10;99.90
6018;DHT22;3037;51.068;13.780;2023-09-07T03:00:52;14.00;99.90
6018;DHT22;3037;51.068;13.780;2023-09-07T03:03:18;14.10;99.90
6018;DHT22;3037;51.068;13.780;2023-09-07T03:05:43;14.10;99.90
6018;DHT22;3037;51.068;13.780;2023-09-07T03:08:10;14.10;99.90
6018;DHT22;3037;51.068;13.780;2023-09-07T03:10:36;14.00;99.90
6018;DHT22;3037;51.068;13.780;2023-09-07T03:13:03;13.90;99.90
6018;DHT22;3037;51.068;13.780;2023-09-07T03:15:29;14.00;99.90
6018;DHT22;3037;51.068;13.780;2023-09-07T03:17:54;14.00;99.90
6018;DHT22;3037;51.068;13.780;2023-09-07T03:20:20;13.90;99.90
6018;DHT22;3037;51.068;13.780;2023-09-07T03:22:46;14.00;99.90
6018;DHT22;3037;51.068;13.780;2023-09-07T03:25:13;13.90;99.90
6018;DHT22;3037;51.068;13.780;2023-09-07T03:27:39;13.90;99.90
6018;DHT22;3037;51.068;13.780;2023-09-07T03:30:05;14.00;99.90
6018;DHT22;3037;51.068;13.780;2023-09-07T03:32:31;13.90;99.90
6018;DHT22;3037;51.068;13.780;2023-09-07T03:34:59;13.80;99.90
6018;DHT22;3037;51.068;13.780;2023-09-07T03:37:26;13.80;99.90
6018;DHT22;3037;51.068;13.780;2023-09-07T03:39:52;13.80;99.90
6018;DHT22;3037;51.068;13.780;2023-09-07T03:42:17;14.00;99.90
6018;DHT22;3037;51.068;13.780;2023-09-07T03:44:43;14.30;99.90
6018;DHT22;3037;51.068;13.780;2023-09-07T03:47:09;14.30;99.90
6018;DHT22;3037;51.068;13.780;2023-09-07T03:49:35;14.30;99.90
6018;DHT22;3037;51.068;13.780;2023-09-07T03:52:01;14.00;99.90
6018;DHT22;3037;51.068;13.780;2023-09-07T03:54:26;13.90;99.90
6018;DHT22;3037;51.068;13.780;2023-09-07T03:56:52;13.80;99.90
6018;DHT22;3037;51.068;13.780;2023-09-07T03:59:18;13.60;99.90
6018;DHT22;3037;51.068;13.780;2023-09-07T04:01:44;13.60;99.90
6018;DHT22;3037;51.068;13.780;2023-09-07T04:04:10;13.50;99.90
6018;DHT22;3037;51.068;13.780;2023-09-07T04:06:35;13.50;99.90
6018;DHT22;3037;51.068;13.780;2023-09-07T04:09:01;13.60;99.90
6018;DHT22;3037;51.068;13.780;2023-09-07T04:11:26;13.60;99.90
6018;DHT22;3037;51.068;13.780;2023-09-07T04:13:52;13.70;99.90
6018;DHT22;3037;51.068;13.780;2023-09-07T04:16:17;13.70;99.90
6018;DHT22;3037;51.068;13.780;2023-09-07T04:18:43;13.70;99.90
6018;DHT22;3037;51.068;13.780;2023-09-07T04:21:09;13.70;99.90
6018;DHT22;3037;51.068;13.780;2023-09-07T04:23:35;13.70;99.90
6018;DHT22;3037;51.068;13.780;2023-09-07T04:26:09;13.70;99.90
6018;DHT22;3037;51.068;13.780;2023-09-07T04:28:35;13.70;99.90
6018;DHT22;3037;51.068;13.780;2023-09-07T04:31:01;13.70;99.90
6018;DHT22;3037;51.068;13.780;2023-09-07T04:33:30;13.60;99.90
6018;DHT22;3037;51.068;13.780;2023-09-07T04:35:56;13.50;99.90
6018;DHT22;3037;51.068;13.780;2023-09-07T04:38:21;13.50;99.90
6018;DHT22;3037;51.068;13.780;2023-09-07T04:40:47;13.60;99.90
6018;DHT22;3037;51.068;13.780;2023-09-07T04:43:13;13.60;99.90
6018;DHT22;3037;51.068;13.780;2023-09-07T04:45:46;13.70;99.90
6018;DHT22;3037;51.068;13.780;2023-09-07T04:48:12;13.80;99.90
6018;DHT22;3037;51.068;13.780;2023-09-07T04:50:37;13.80;99.90
6018;DHT22;3037;51.068;13.780;2023-09-07T04:53:03;13.70;99.90
6018;DHT22;3037;51.068;13.780;2023-09-07T04:55:28;13.70;99.90
6018;DHT22;3037;51.068;13.780;2023-09-07T04:57:54;13.90;99.90
6018;DHT22;3037;51.068;13.780;2023-09-07T05:00:19;13.90;99.90
6018;DHT22;3037;51.068;13.780;2023-09-07T05:02:45;13.90;99.90
6018;DHT22;3037;51.068;13.780;2023-09-07T05:05:12;14.00;99.90
6018;DHT22;3037;51.068;13.780;2023-09-07T05:07:37;14.20;99.90
6018;DHT22;3037;51.068;13.780;2023-09-07T05:10:03;14.20;99.90
6018;DHT22;3037;51.068;13.780;2023-09-07T05:12:29;14.20;99.90
6018;DHT22;3037;51.068;13.780;2023-09-07T05:14:55;14.20;99.90
6018;DHT22;3037;51.068;13.780;2023-09-07T05:17:20;14.40;99.90
6018;DHT22;3037;51.068;13.780;2023-09-07T05:19:46;14.40;99.90
6018;DHT22;3037;51.068;13.780;2023-09-07T05:22:11;14.60;99.90
6018;DHT22;3037;51.068;13.780;2023-09-07T05:24:40;14.50;99.90
6018;DHT22;3037;51.068;13.780;2023-09-07T05:27:06;14.60;99.90
6018;DHT22;3037;51.068;13.780;2023-09-07T05:29:31;14.70;99.90
6018;DHT22;3037;51.068;13.780;2023-09-07T05:31:57;14.70;99.90
6018;DHT22;3037;51.068;13.780;2023-09-07T05:34:22;14.80;99.90
6018;DHT22;3037;51.068;13.780;2023-09-07T05:36:48;14.80;99.90
6018;DHT22;3037;51.068;13.780;2023-09-07T05:39:13;14.90;99.90
6018;DHT22;3037;51.068;13.780;2023-09-07T05:41:39;15.00;99.90
6018;DHT22;3037;51.068;13.780;2023-09-07T05:44:05;15.10;99.90
6018;DHT22;3037;51.068;13.780;2023-09-07T05:46:30;15.10;99.90
6018;DHT22;3037;51.068;13.780;2023-09-07T05:48:56;15.10;99.90
6018;DHT22;3037;51.068;13.780;2023-09-07T05:51:21;15.30;99.90
6018;DHT22;3037;51.068;13.780;2023-09-07T05:53:47;15.30;99.90
6018;DHT22;3037;51.068;13.780;2023-09-07T05:56:12;15.50;99.90
6018;DHT22;3037;51.068;13.780;2023-09-07T05:58:38;15.60;99.90
6018;DHT22;3037;51.068;13.780;2023-09-07T06:01:03;15.80;99.90
6018;DHT22;3037;51.068;13.780;2023-09-07T06:03:30;15.90;99.90
6018;DHT22;3037;51.068;13.780;2023-09-07T06:05:57;16.70;99.90
6018;DHT22;3037;51.068;13.780;2023-09-07T06:08:23;20.20;99.90
6018;DHT22;3037;51.068;13.780;2023-09-07T06:10:48;20.90;1.00
6018;DHT22;3037;51.068;13.780;2023-09-07T06:13:14;19.80;99.90
6018;DHT22;3037;51.068;13.780;2023-09-07T06:15:40;20.20;18.30
6018;DHT22;3037;51.068;13.780;2023-09-07T06:18:05;23.00;1.00
6018;DHT22;3037;51.068;13.780;2023-09-07T06:20:31;24.10;1.00
6018;DHT22;3037;51.068;13.780;2023-09-07T06:22:57;24.70;1.00
6018;DHT22;3037;51.068;13.780;2023-09-07T06:25:22;25.70;1.00
6018;DHT22;3037;51.068;13.780;2023-09-07T06:27:48;26.10;1.00
6018;DHT22;3037;51.068;13.780;2023-09-07T06:30:13;26.20;1.00
6018;DHT22;3037;51.068;13.780;2023-09-07T06:32:39;26.70;1.00
6018;DHT22;3037;51.068;13.780;2023-09-07T06:35:05;27.20;1.00
6018;DHT22;3037;51.068;13.780;2023-09-07T06:37:31;27.30;1.00
6018;DHT22;3037;51.068;13.780;2023-09-07T06:39:57;29.10;1.00
6018;DHT22;3037;51.068;13.780;2023-09-07T06:42:22;29.40;1.00
6018;DHT22;3037;51.068;13.780;2023-09-07T06:44:48;29.80;1.00
6018;DHT22;3037;51.068;13.780;2023-09-07T06:47:13;29.60;1.00
6018;DHT22;3037;51.068;13.780;2023-09-07T06:49:39;29.80;1.00
6018;DHT22;3037;51.068;13.780;2023-09-07T06:52:04;29.20;1.00
6018;DHT22;3037;51.068;13.780;2023-09-07T06:54:30;29.10;1.00
6018;DHT22;3037;51.068;13.780;2023-09-07T06:56:56;29.90;1.00
6018;DHT22;3037;51.068;13.780;2023-09-07T06:59:21;31.50;1.00
6018;DHT22;3037;51.068;13.780;2023-09-07T07:01:47;31.00;1.00
6018;DHT22;3037;51.068;13.780;2023-09-07T07:04:12;31.10;1.00
6018;DHT22;3037;51.068;13.780;2023-09-07T07:06:38;31.80;1.00
6018;DHT22;3037;51.068;13.780;2023-09-07T07:09:05;31.70;1.00
6018;DHT22;3037;51.068;13.780;2023-09-07T07:11:31;31.90;1.00
6018;DHT22;3037;51.068;13.780;2023-09-07T07:13:56;31.70;1.00
6018;DHT22;3037;51.068;13.780;2023-09-07T07:16:22;32.70;1.00
6018;DHT22;3037;51.068;13.780;2023-09-07T07:18:47;33.90;1.00
6018;DHT22;3037;51.068;13.780;2023-09-07T07:21:13;34.20;1.00
6018;DHT22;3037;51.068;13.780;2023-09-07T07:23:39;34.20;1.00
6018;DHT22;3037;51.068;13.780;2023-09-07T07:26:04;34.70;1.00
6018;DHT22;3037;51.068;13.780;2023-09-07T07:28:30;35.20;1.00
6018;DHT22;3037;51.068;13.780;2023-09-07T07:30:55;34.90;1.00
6018;DHT22;3037;51.068;13.780;2023-09-07T07:33:21;35.70;1.00
6018;DHT22;3037;51.068;13.780;2023-09-07T07:35:47;35.10;1.00
6018;DHT22;3037;51.068;13.780;2023-09-07T07:38:13;34.90;1.00
6018;DHT22;3037;51.068;13.780;2023-09-07T07:40:40;34.90;1.00
6018;DHT22;3037;51.068;13.780;2023-09-07T07:43:05;34.80;1.00
6018;DHT22;3037;51.068;13.780;2023-09-07T07:45:31;35.00;1.00
6018;DHT22;3037;51.068;13.780;2023-09-07T07:48:02;34.80;1.00
6018;DHT22;3037;51.068;13.780;2023-09-07T07:50:28;36.10;1.00
6018;DHT22;3037;51.068;13.780;2023-09-07T07:52:53;36.90;1.00
6018;DHT22;3037;51.068;13.780;2023-09-07T07:55:19;37.20;1.00
6018;DHT22;3037;51.068;13.780;2023-09-07T07:57:44;36.70;1.00
6018;DHT22;3037;51.068;13.780;2023-09-07T08:00:10;37.00;1.00
6018;DHT22;3037;51.068;13.780;2023-09-07T08:02:36;36.00;1.00
6018;DHT22;3037;51.068;13.780;2023-09-07T08:05:03;36.00;1.00
6018;DHT22;3037;51.068;13.780;2023-09-07T08:07:29;35.30;1.00
6018;DHT22;3037;51.068;13.780;2023-09-07T08:09:55;37.20;1.00
6018;DHT22;3037;51.068;13.780;2023-09-07T08:12:20;36.90;1.00
6018;DHT22;3037;51.068;13.780;2023-09-07T08:14:46;35.90;1.00
6018;DHT22;3037;51.068;13.780;2023-09-07T08:17:12;37.20;1.00
6018;DHT22;3037;51.068;13.780;2023-09-07T08:19:37;38.10;1.00
6018;DHT22;3037;51.068;13.780;2023-09-07T08:22:04;38.30;1.00
6018;DHT22;3037;51.068;13.780;2023-09-07T08:24:30;37.70;1.00
6018;DHT22;3037;51.068;13.780;2023-09-07T08:26:55;38.50;1.00
6018;DHT22;3037;51.068;13.780;2023-09-07T08:29:26;39.00;1.00
6018;DHT22;3037;51.068;13.780;2023-09-07T08:31:53;38.50;1.00
6018;DHT22;3037;51.068;13.780;2023-09-07T08:34:19;37.50;1.00
6018;DHT22;3037;51.068;13.780;2023-09-07T08:36:47;38.00;1.00
6018;DHT22;3037;51.068;13.780;2023-09-07T08:39:13;37.50;1.00
6018;DHT22;3037;51.068;13.780;2023-09-07T08:41:43;37.50;1.00
6018;DHT22;3037;51.068;13.780;2023-09-07T08:44:18;37.90;1.00
6018;DHT22;3037;51.068;13.780;2023-09-07T08:46:44;38.80;1.00
6018;DHT22;3037;51.068;13.780;2023-09-07T08:49:11;38.20;1.00
6018;DHT22;3037;51.068;13.780;2023-09-07T08:51:37;39.20;1.00
6018;DHT22;3037;51.068;13.780;2023-09-07T08:54:04;37.70;1.00
6018;DHT22;3037;51.068;13.780;2023-09-07T08:56:29;39.30;1.00
6018;DHT22;3037;51.068;13.780;2023-09-07T08:58:55;37.80;1.00
6018;DHT22;3037;51.068;13.780;2023-09-07T09:01:21;38.30;1.00
6018;DHT22;3037;51.068;13.780;2023-09-07T09:03:48;37.30;1.00
6018;DHT22;3037;51.068;13.780;2023-09-07T09:06:14;37.70;1.00
6018;DHT22;3037;51.068;13.780;2023-09-07T09:08:55;37.80;1.00
6018;DHT22;3037;51.068;13.780;2023-09-07T09:11:22;37.70;1.00
6018;DHT22;3037;51.068;13.780;2023-09-07T09:13:49;37.90;1.00
6018;DHT22;3037;51.068;13.780;2023-09-07T09:16:15;37.80;1.00
6018;DHT22;3037;51.068;13.780;2023-09-07T09:18:55;36.70;1.00
6018;DHT22;3037;51.068;13.780;2023-09-07T09:21:23;37.60;1.00
6018;DHT22;3037;51.068;13.780;2023-09-07T09:23:51;37.60;1.00
6018;DHT22;3037;51.068;13.780;2023-09-07T09:26:18;37.30;1.00
6018;DHT22;3037;51.068;13.780;2023-09-07T09:28:44;36.70;1.00
6018;DHT22;3037;51.068;13.780;2023-09-07T09:31:13;37.30;1.00
6018;DHT22;3037;51.068;13.780;2023-09-07T09:33:40;36.80;1.00
6018;DHT22;3037;51.068;13.780;2023-09-07T09:36:07;36.20;1.00
6018;DHT22;3037;51.068;13.780;2023-09-07T09:38:33;35.80;1.00
6018;DHT22;3037;51.068;13.780;2023-09-07T09:40:59;37.00;1.00
6018;DHT22;3037;51.068;13.780;2023-09-07T09:43:25;37.60;1.00
6018;DHT22;3037;51.068;13.780;2023-09-07T09:45:52;38.00;1.00
6018;DHT22;3037;51.068;13.780;2023-09-07T09:48:22;38.00;1.00
6018;DHT22;3037;51.068;13.780;2023-09-07T09:50:49;37.10;1.00
6018;DHT22;3037;51.068;13.780;2023-09-07T09:53:16;36.80;1.00
6018;DHT22;3037;51.068;13.780;2023-09-07T09:55:47;36.30;1.00
6018;DHT22;3037;51.068;13.780;2023-09-07T09:58:14;36.60;1.00
6018;DHT22;3037;51.068;13.780;2023-09-07T10:00:48;36.30;1.00
6018;DHT22;3037;51.068;13.780;2023-09-07T10:03:24;36.10;1.00
6018;DHT22;3037;51.068;13.780;2023-09-07T10:05:52;35.20;1.00
6018;DHT22;3037;51.068;13.780;2023-09-07T10:08:19;36.80;1.00
6018;DHT22;3037;51.068;13.780;2023-09-07T10:10:48;36.00;1.00
6018;DHT22;3037;51.068;13.780;2023-09-07T10:13:16;36.00;1.00
6018;DHT22;3037;51.068;13.780;2023-09-07T10:15:42;36.10;1.00
6018;DHT22;3037;51.068;13.780;2023-09-07T10:20:55;35.00;1.00
6018;DHT22;3037;51.068;13.780;2023-09-07T10:23:42;34.70;1.00
6018;DHT22;3037;51.068;13.780;2023-09-07T10:26:15;34.40;1.00
6018;DHT22;3037;51.068;13.780;2023-09-07T10:28:43;34.70;1.00
6018;DHT22;3037;51.068;13.780;2023-09-07T10:31:19;34.50;1.00
6018;DHT22;3037;51.068;13.780;2023-09-07T10:33:46;34.30;1.00
6018;DHT22;3037;51.068;13.780;2023-09-07T10:36:25;34.30;1.00
6018;DHT22;3037;51.068;13.780;2023-09-07T10:38:52;34.60;1.00
6018;DHT22;3037;51.068;13.780;2023-09-07T10:41:21;35.90;1.00
6018;DHT22;3037;51.068;13.780;2023-09-07T10:46:13;34.30;1.00
6018;DHT22;3037;51.068;13.780;2023-09-07T10:48:39;33.10;1.00
6018;DHT22;3037;51.068;13.780;2023-09-07T10:51:06;32.80;1.00
6018;DHT22;3037;51.068;13.780;2023-09-07T10:53:32;33.00;1.00
6018;DHT22;3037;51.068;13.780;2023-09-07T10:56:02;32.60;1.00
6018;DHT22;3037;51.068;13.780;2023-09-07T10:58:30;32.50;1.00
6018;DHT22;3037;51.068;13.780;2023-09-07T11:00:57;32.70;1.00
6018;DHT22;3037;51.068;13.780;2023-09-07T11:03:27;32.80;1.00
6018;DHT22;3037;51.068;13.780;2023-09-07T11:06:00;33.40;1.00
6018;DHT22;3037;51.068;13.780;2023-09-07T11:08:29;32.20;1.00
6018;DHT22;3037;51.068;13.780;2023-09-07T11:10:55;32.20;1.00
6018;DHT22;3037;51.068;13.780;2023-09-07T11:13:22;32.20;1.00
6018;DHT22;3037;51.068;13.780;2023-09-07T11:15:48;32.20;1.00
6018;DHT22;3037;51.068;13.780;2023-09-07T11:18:19;32.00;1.00
6018;DHT22;3037;51.068;13.780;2023-09-07T11:20:46;32.00;1.00
6018;DHT22;3037;51.068;13.780;2023-09-07T11:23:12;32.00;1.00
6018;DHT22;3037;51.068;13.780;2023-09-07T11:25:38;32.00;1.00
6018;DHT22;3037;51.068;13.780;2023-09-07T11:28:08;31.90;1.00
6018;DHT22;3037;51.068;13.780;2023-09-07T11:30:34;32.00;1.00
6018;DHT22;3037;51.068;13.780;2023-09-07T11:33:05;31.00;1.00
6018;DHT22;3037;51.068;13.780;2023-09-07T11:35:33;31.20;1.00
6018;DHT22;3037;51.068;13.780;2023-09-07T11:38:03;31.10;1.00
6018;DHT22;3037;51.068;13.780;2023-09-07T11:40:30;30.70;1.00
6018;DHT22;3037;51.068;13.780;2023-09-07T11:42:56;30.50;1.00
6018;DHT22;3037;51.068;13.780;2023-09-07T11:45:22;30.10;1.00
6018;DHT22;3037;51.068;13.780;2023-09-07T11:47:47;30.20;1.00
6018;DHT22;3037;51.068;13.780;2023-09-07T11:50:13;30.30;1.00
6018;DHT22;3037;51.068;13.780;2023-09-07T11:52:38;30.50;1.00
6018;DHT22;3037;51.068;13.780;2023-09-07T11:55:04;30.50;1.00
6018;DHT22;3037;51.068;13.780;2023-09-07T11:57:30;30.60;1.00
6018;DHT22;3037;51.068;13.780;2023-09-07T11:59:56;30.30;1.00
6018;DHT22;3037;51.068;13.780;2023-09-07T12:02:21;30.00;1.00
6018;DHT22;3037;51.068;13.780;2023-09-07T12:04:47;30.30;1.00
6018;DHT22;3037;51.068;13.780;2023-09-07T12:07:14;30.30;1.00
6018;DHT22;3037;51.068;13.780;2023-09-07T12:09:40;30.00;1.00
6018;DHT22;3037;51.068;13.780;2023-09-07T12:12:05;29.80;1.00
6018;DHT22;3037;51.068;13.780;2023-09-07T12:14:31;30.10;1.00
6018;DHT22;3037;51.068;13.780;2023-09-07T12:16:57;30.00;1.00
6018;DHT22;3037;51.068;13.780;2023-09-07T12:19:23;30.10;1.00
6018;DHT22;3037;51.068;13.780;2023-09-07T12:21:48;30.10;1.00
6018;DHT22;3037;51.068;13.780;2023-09-07T12:24:14;30.00;1.00
6018;DHT22;3037;51.068;13.780;2023-09-07T12:26:39;29.80;1.00
6018;DHT22;3037;51.068;13.780;2023-09-07T12:29:05;30.10;1.00
6018;DHT22;3037;51.068;13.780;2023-09-07T12:31:31;30.20;1.00
6018;DHT22;3037;51.068;13.780;2023-09-07T12:33:57;30.20;1.00
6018;DHT22;3037;51.068;13.780;2023-09-07T12:36:22;30.00;1.00
6018;DHT22;3037;51.068;13.780;2023-09-07T12:38:48;30.10;1.00
6018;DHT22;3037;51.068;13.780;2023-09-07T12:41:14;30.20;1.00
6018;DHT22;3037;51.068;13.780;2023-09-07T12:43:41;30.40;1.00
6018;DHT22;3037;51.068;13.780;2023-09-07T12:46:08;30.50;1.00
6018;DHT22;3037;51.068;13.780;2023-09-07T12:48:34;30.00;1.00
6018;DHT22;3037;51.068;13.780;2023-09-07T12:50:59;30.00;1.00
6018;DHT22;3037;51.068;13.780;2023-09-07T12:53:25;30.10;1.00
6018;DHT22;3037;51.068;13.780;2023-09-07T12:55:52;30.30;1.00
6018;DHT22;3037;51.068;13.780;2023-09-07T12:58:18;30.10;1.00
6018;DHT22;3037;51.068;13.780;2023-09-07T13:00:44;30.00;1.00
6018;DHT22;3037;51.068;13.780;2023-09-07T13:03:09;30.10;1.00
6018;DHT22;3037;51.068;13.780;2023-09-07T13:05:36;30.20;1.00
6018;DHT22;3037;51.068;13.780;2023-09-07T13:08:02;30.40;1.00
6018;DHT22;3037;51.068;13.780;2023-09-07T13:10:28;30.60;1.00
6018;DHT22;3037;51.068;13.780;2023-09-07T13:12:55;30.50;1.00
6018;DHT22;3037;51.068;13.780;2023-09-07T13:15:20;30.10;1.00
6018;DHT22;3037;51.068;13.780;2023-09-07T13:17:46;30.00;1.00
6018;DHT22;3037;51.068;13.780;2023-09-07T13:20:12;29.80;1.00
6018;DHT22;3037;51.068;13.780;2023-09-07T13:22:37;30.00;1.00
6018;DHT22;3037;51.068;13.780;2023-09-07T13:25:03;30.00;1.00
6018;DHT22;3037;51.068;13.780;2023-09-07T13:27:30;30.30;1.00
6018;DHT22;3037;51.068;13.780;2023-09-07T13:29:56;30.10;1.00
6018;DHT22;3037;51.068;13.780;2023-09-07T13:32:23;30.30;1.00
6018;DHT22;3037;51.068;13.780;2023-09-07T13:34:49;30.10;1.00
6018;DHT22;3037;51.068;13.780;2023-09-07T13:37:15;30.00;1.00
6018;DHT22;3037;51.068;13.780;2023-09-07T13:39:40;29.80;1.00
6018;DHT22;3037;51.068;13.780;2023-09-07T13:42:06;30.00;1.00
6018;DHT22;3037;51.068;13.780;2023-09-07T13:44:32;29.80;1.00
6018;DHT22;3037;51.068;13.780;2023-09-07T13:46:57;30.00;1.00
6018;DHT22;3037;51.068;13.780;2023-09-07T13:49:23;29.90;1.00
6018;DHT22;3037;51.068;13.780;2023-09-07T13:51:48;30.00;1.00
6018;DHT22;3037;51.068;13.780;2023-09-07T13:54:14;30.00;1.00
6018;DHT22;3037;51.068;13.780;2023-09-07T13:56:39;29.90;1.00
6018;DHT22;3037;51.068;13.780;2023-09-07T13:59:07;30.10;1.00
6018;DHT22;3037;51.068;13.780;2023-09-07T14:01:33;30.00;1.00
6018;DHT22;3037;51.068;13.780;2023-09-07T14:03:58;29.90;1.00
6018;DHT22;3037;51.068;13.780;2023-09-07T14:06:24;29.90;1.00
6018;DHT22;3037;51.068;13.780;2023-09-07T14:08:51;30.10;1.00
6018;DHT22;3037;51.068;13.780;2023-09-07T14:11:17;30.00;1.00
6018;DHT22;3037;51.068;13.780;2023-09-07T14:13:42;30.00;1.00
6018;DHT22;3037;51.068;13.780;2023-09-07T14:16:08;29.80;1.00
6018;DHT22;3037;51.068;13.780;2023-09-07T14:18:39;30.00;1.00
6018;DHT22;3037;51.068;13.780;2023-09-07T14:21:04;30.00;1.00
6018;DHT22;3037;51.068;13.780;2023-09-07T14:23:30;30.00;1.00
6018;DHT22;3037;51.068;13.780;2023-09-07T14:25:55;30.10;1.00
6018;DHT22;3037;51.068;13.780;2023-09-07T14:28:21;30.10;1.00
6018;DHT22;3037;51.068;13.780;2023-09-07T14:30:47;30.20;1.00
6018;DHT22;3037;51.068;13.780;2023-09-07T14:33:13;30.00;1.00
6018;DHT22;3037;51.068;13.780;2023-09-07T14:35:38;30.00;1.00
6018;DHT22;3037;51.068;13.780;2023-09-07T14:38:05;30.10;1.00
6018;DHT22;3037;51.068;13.780;2023-09-07T14:40:30;30.00;1.00
6018;DHT22;3037;51.068;13.780;2023-09-07T14:42:56;30.00;1.00
6018;DHT22;3037;51.068;13.780;2023-09-07T14:45:26;30.00;1.00
6018;DHT22;3037;51.068;13.780;2023-09-07T14:47:52;29.90;1.00
6018;DHT22;3037;51.068;13.780;2023-09-07T14:50:17;29.90;1.00
6018;DHT22;3037;51.068;13.780;2023-09-07T14:52:43;30.10;1.00
6018;DHT22;3037;51.068;13.780;2023-09-07T14:55:13;30.20;1.00
6018;DHT22;3037;51.068;13.780;2023-09-07T14:57:39;29.90;1.00
6018;DHT22;3037;51.068;13.780;2023-09-07T15:00:05;29.70;1.00
6018;DHT22;3037;51.068;13.780;2023-09-07T15:02:30;29.80;1.00
6018;DHT22;3037;51.068;13.780;2023-09-07T15:04:56;29.80;1.00
6018;DHT22;3037;51.068;13.780;2023-09-07T15:07:22;29.40;1.00
6018;DHT22;3037;51.068;13.780;2023-09-07T15:09:49;29.50;1.00
6018;DHT22;3037;51.068;13.780;2023-09-07T15:12:15;29.40;1.00
6018;DHT22;3037;51.068;13.780;2023-09-07T15:14:40;29.50;1.00
6018;DHT22;3037;51.068;13.780;2023-09-07T15:17:06;29.40;1.00
6018;DHT22;3037;51.068;13.780;2023-09-07T15:19:32;29.30;1.00
6018;DHT22;3037;51.068;13.780;2023-09-07T15:21:59;29.30;1.00
6018;DHT22;3037;51.068;13.780;2023-09-07T15:24:25;29.30;1.00
6018;DHT22;3037;51.068;13.780;2023-09-07T15:26:51;29.10;1.00
6018;DHT22;3037;51.068;13.780;2023-09-07T15:29:16;28.90;1.00
6018;DHT22;3037;51.068;13.780;2023-09-07T15:31:42;29.00;1.00
6018;DHT22;3037;51.068;13.780;2023-09-07T15:34:07;29.00;1.00
6018;DHT22;3037;51.068;13.780;2023-09-07T15:36:33;29.00;1.00
6018;DHT22;3037;51.068;13.780;2023-09-07T15:39:00;29.10;1.00
6018;DHT22;3037;51.068;13.780;2023-09-07T15:41:26;29.00;1.00
6018;DHT22;3037;51.068;13.780;2023-09-07T15:43:51;28.90;1.00
6018;DHT22;3037;51.068;13.780;2023-09-07T15:46:19;28.80;1.00
6018;DHT22;3037;51.068;13.780;2023-09-07T15:48:45;28.70;1.00
6018;DHT22;3037;51.068;13.780;2023-09-07T15:51:10;28.60;1.00
6018;DHT22;3037;51.068;13.780;2023-09-07T15:53:36;28.50;1.00